Time;durP1;ratioP1;P1;durP2;ratioP2;P2;SDS_P1;SDS_P2;PMS_P1;PMS_P2;Temp;Humidity;BMP_temperature;BMP_pressure;BME280_temperature;BME280_humidity;BME280_pressure;Samples;Min_cycle;Max_cycle;Signal;HPM_P1;HPM_P2
2023/01/06 00:00:19;;;;;;;15.53;7.97;;;;;;;7.98;73.59;95163.31;5052097;28;20270;-78
2023/01/06 00:02:45;;;;;;;16.90;8.87;;;;;;;8.33;73.32;95211.47;5060399;28;20210;-78
2023/01/06 00:05:11;;;;;;;19.17;9.83;;;;;;;8.20;73.24;95188.56;5065376;28;20230;-78
2023/01/06 00:07:38;;;;;;;19.63;9.82;;;;;;;8.41;73.18;95218.41;5069025;28;20445;-78
2023/01/06 00:10:04;;;;;;;19.40;9.70;;;;;;;8.22;73.09;95181.28;5051315;28;20499;-78
2023/01/06 00:12:30;;;;;;;18.43;9.30;;;;;;;8.28;73.09;95195.47;5063746;28;20206;-78
2023/01/06 00:14:57;;;;;;;21.73;8.83;;;;;;;8.40;72.99;95199.22;5057302;28;20225;-77
2023/01/06 00:17:22;;;;;;;16.47;7.43;;;;;;;8.62;72.21;95240.19;5067383;28;20170;-77
2023/01/06 00:19:48;;;;;;;23.20;11.02;;;;;;;8.59;72.73;95239.75;5069958;28;20499;-78
2023/01/06 00:22:13;;;;;;;33.20;14.33;;;;;;;8.59;72.56;95242.38;5064285;28;20593;-78
2023/01/06 00:24:39;;;;;;;27.30;13.43;;;;;;;8.30;72.55;95201.34;5059877;28;20407;-78
2023/01/06 00:27:04;;;;;;;24.03;11.80;;;;;;;8.56;72.89;95254.06;5064071;28;20689;-78
2023/01/06 00:29:30;;;;;;;22.40;9.97;;;;;;;8.55;72.67;95251.66;5064079;28;20182;-78
2023/01/06 00:31:59;;;;;;;21.43;9.40;;;;;;;8.50;72.38;95241.69;5068101;28;20528;-78
2023/01/06 00:34:24;;;;;;;16.73;7.67;;;;;;;8.59;72.57;95248.44;5075263;28;20169;-78
2023/01/06 00:36:49;;;;;;;17.50;9.25;;;;;;;8.37;72.66;95211.94;5064589;28;20782;-78
2023/01/06 00:39:15;;;;;;;19.03;9.40;;;;;;;8.41;73.45;95228.91;5053351;28;20423;-77
2023/01/06 00:44:24;;;;;;;16.10;7.60;;;;;;;8.63;73.08;95248.88;5075011;28;20231;-78
2023/01/06 00:46:50;;;;;;;14.13;6.27;;;;;;;8.73;73.35;95256.44;5072337;28;20664;-78
2023/01/06 00:49:15;;;;;;;13.73;6.87;;;;;;;8.49;73.32;95219.09;5058636;28;20409;-78
2023/01/06 00:51:41;;;;;;;12.83;7.03;;;;;;;8.82;73.38;95253.47;5058767;28;20179;-78
2023/01/06 00:54:08;;;;;;;12.60;6.87;;;;;;;9.00;73.24;95263.50;5054485;28;20415;-78
2023/01/06 00:56:39;;;;;;;12.23;5.87;;;;;;;8.73;73.61;95215.25;5067163;28;20443;-78
2023/01/06 00:59:05;;;;;;;9.37;5.70;;;;;;;9.10;73.71;95269.22;5058626;28;20631;-78
2023/01/06 01:01:31;;;;;;;10.13;5.70;;;;;;;9.00;73.75;95237.25;5063573;28;20159;-78
2023/01/06 01:03:57;;;;;;;8.68;5.60;;;;;;;9.29;74.05;95259.88;5073447;28;20410;-78
2023/01/06 01:06:22;;;;;;;9.93;5.73;;;;;;;9.14;73.54;95225.03;5071665;28;20446;-78
2023/01/06 01:08:52;;;;;;;11.93;4.95;;;;;;;9.23;73.12;95223.88;5074743;28;20418;-78
2023/01/06 01:14:01;;;;;;;7.70;5.00;;;;;;;9.64;73.00;95258.88;5060144;28;20258;-78
2023/01/06 01:16:27;;;;;;;9.20;5.00;;;;;;;9.57;72.99;95238.81;5063281;28;20257;-78
2023/01/06 01:18:52;;;;;;;9.10;4.93;;;;;;;9.68;72.50;95256.66;5073053;28;20224;-78
2023/01/06 01:21:17;;;;;;;8.60;3.83;;;;;;;9.79;72.52;95258.72;5065537;28;20224;-78
2023/01/06 01:23:43;;;;;;;10.10;5.47;;;;;;;9.73;72.59;95241.09;5057575;28;20408;-78
2023/01/06 01:26:08;;;;;;;9.53;4.30;;;;;;;9.77;72.23;95251.03;5063082;28;20206;-78
2023/01/06 01:28:34;;;;;;;10.07;4.80;;;;;;;9.83;72.55;95254.72;5072368;28;20492;-78
2023/01/06 01:31:00;;;;;;;8.00;5.30;;;;;;;9.84;72.65;95259.78;5063318;28;20911;-78
2023/01/06 01:33:28;;;;;;;9.20;4.63;;;;;;;9.73;72.18;95249.00;5063426;28;20171;-78
2023/01/06 01:35:53;;;;;;;8.93;4.22;;;;;;;9.91;71.73;95274.75;5065640;28;20414;-78
2023/01/06 01:38:18;;;;;;;8.40;5.13;;;;;;;9.86;72.14;95261.41;5071613;28;20913;-78
2023/01/06 01:40:48;;;;;;;8.33;4.90;;;;;;;9.90;71.89;95252.91;5064979;28;20194;-78
2023/01/06 01:43:14;;;;;;;8.55;5.20;;;;;;;9.55;72.10;95190.88;5065440;28;20415;-78
2023/01/06 01:45:44;;;;;;;12.03;6.03;;;;;;;9.92;71.52;95232.50;5051696;28;20454;-77
2023/01/06 01:48:31;;;;;;;8.00;5.22;;;;;;;9.88;72.01;95209.41;5051748;28;20403;-78
2023/01/06 01:51:00;;;;;;;7.35;4.20;;;;;;;9.76;71.59;95180.25;5062168;28;20453;-78
2023/01/06 01:53:39;;;;;;;8.67;4.53;;;;;;;9.88;71.91;95197.06;5057107;28;20171;-78
2023/01/06 01:56:08;;;;;;;7.70;4.35;;;;;;;9.86;71.75;95206.19;5061182;28;20439;-78
2023/01/06 01:58:39;;;;;;;4.90;3.60;;;;;;;9.87;72.04;95213.84;5062334;28;20194;-78
2023/01/06 02:01:06;;;;;;;6.27;3.60;;;;;;;9.81;71.98;95202.31;5065890;28;20171;-78
2023/01/06 02:03:32;;;;;;;7.72;3.55;;;;;;;9.90;71.38;95195.06;5066507;28;20324;-78
2023/01/06 02:06:03;;;;;;;8.23;3.67;;;;;;;9.81;71.45;95199.69;5061609;28;20992;-78
2023/01/06 02:08:40;;;;;;;6.97;4.03;;;;;;;9.93;71.57;95239.38;5067648;28;20421;-78
2023/01/06 02:11:07;;;;;;;9.80;3.80;;;;;;;9.84;71.79;95237.94;5065096;28;20630;-78
2023/01/06 02:13:35;;;;;;;7.17;3.67;;;;;;;9.70;72.07;95231.78;5059579;28;20485;-78
2023/01/06 02:16:37;;;;;;;6.20;3.75;;;;;;;9.70;72.42;95247.56;5052179;28;20439;-78
2023/01/06 02:19:12;;;;;;;5.15;3.20;;;;;;;9.84;71.66;95262.41;5046158;28;20460;-78
2023/01/06 02:21:56;;;;;;;6.85;3.80;;;;;;;9.80;72.59;95269.03;5050066;28;20430;-78
2023/01/06 02:24:44;;;;;;;4.43;3.30;;;;;;;9.87;72.31;95268.25;5064968;28;20414;-78
2023/01/06 02:27:51;;;;;;;7.17;3.17;;;;;;;9.70;71.73;95238.84;5063018;28;20594;-78
2023/01/06 02:30:38;;;;;;;4.73;3.10;;;;;;;9.97;71.38;95279.22;5064337;28;20182;-78
2023/01/06 02:33:29;;;;;;;6.38;3.83;;;;;;;9.97;71.13;95277.41;5071184;28;20908;-78
2023/01/06 02:36:25;;;;;;;4.50;3.30;;;;;;;9.98;71.00;95278.22;5043258;28;20654;-78
2023/01/06 02:39:06;;;;;;;8.70;3.67;;;;;;;9.97;71.11;95272.16;5051644;28;20750;-78
2023/01/06 02:41:37;;;;;;;4.70;2.87;;;;;;;9.91;71.13;95272.13;5050720;28;20162;-78
2023/01/06 02:44:05;;;;;;;9.68;4.40;;;;;;;9.89;71.14;95259.16;5055534;28;20422;-78
2023/01/06 02:46:36;;;;;;;7.50;3.70;;;;;;;9.88;70.60;95249.66;5059972;28;20199;-78
2023/01/06 02:49:10;;;;;;;10.57;3.35;;;;;;;9.94;70.64;95256.78;5055178;28;20431;-78
2023/01/06 02:51:39;;;;;;;6.68;3.60;;;;;;;9.93;70.52;95264.84;5057356;28;20915;-77
2023/01/06 02:54:16;;;;;;;9.10;3.87;;;;;;;9.83;70.37;95238.94;5052373;28;20426;-78
2023/01/06 02:56:48;;;;;;;10.50;4.33;;;;;;;10.00;70.30;95263.88;5050506;28;20434;-77
2023/01/06 02:59:31;;;;;;;9.48;5.25;;;;;;;9.73;70.09;95217.44;5051243;28;20422;-77
2023/01/06 03:01:59;;;;;;;10.07;5.20;;;;;;;9.95;69.91;95254.94;5042308;28;20415;-77
2023/01/06 03:04:33;;;;;;;7.68;4.70;;;;;;;9.75;70.43;95236.47;5048709;28;20458;-77
2023/01/06 03:07:02;;;;;;;9.52;4.55;;;;;;;9.91;70.50;95251.91;5050314;28;20764;-78
2023/01/06 03:09:35;;;;;;;5.20;3.60;;;;;;;9.90;70.35;95247.66;5050556;28;20435;-78
2023/01/06 03:12:11;;;;;;;6.20;4.03;;;;;;;10.02;69.41;95243.47;5059850;28;20190;-78
2023/01/06 03:14:40;;;;;;;6.43;4.00;;;;;;;9.94;68.88;95229.66;5070144;28;20546;-78
2023/01/06 03:17:05;;;;;;;6.93;4.25;;;;;;;9.82;69.70;95232.84;5070146;28;20460;-77
2023/01/06 03:19:32;;;;;;;5.10;3.47;;;;;;;9.81;69.32;95233.06;5056101;28;20211;-78
2023/01/06 03:21:59;;;;;;;6.97;3.70;;;;;;;9.93;69.50;95254.34;5060128;28;20211;-77
2023/01/06 03:24:25;;;;;;;6.85;4.38;;;;;;;9.84;70.00;95261.59;5070192;28;20416;-78
2023/01/06 03:26:52;;;;;;;5.53;3.17;;;;;;;9.82;69.29;95276.75;5057296;28;20198;-78
2023/01/06 03:29:19;;;;;;;6.57;4.20;;;;;;;9.82;69.43;95282.00;5052117;28;20658;-78
2023/01/06 03:32:34;;;;;;;6.68;4.50;;;;;;;9.64;69.63;95258.88;5050751;28;20422;-77
2023/01/06 03:35:23;;;;;;;8.05;4.22;;;;;;;9.75;69.89;95273.28;5033654;28;20462;-77
2023/01/06 03:37:52;;;;;;;10.30;4.57;;;;;;;9.73;69.49;95268.22;5045910;28;20446;-77
2023/01/06 03:40:45;;;;;;;6.90;4.20;;;;;;;9.67;69.75;95266.38;5049514;28;20419;-77
2023/01/06 03:43:42;;;;;;;5.87;3.40;;;;;;;9.64;69.43;95269.38;5051594;28;20650;-77
2023/01/06 03:46:34;;;;;;;16.85;7.60;;;;;;;9.60;70.03;95260.25;5049017;28;20443;-77
2023/01/06 03:49:08;;;;;;;7.30;4.67;;;;;;;9.52;69.91;95247.25;5049329;28;20913;-77
2023/01/06 03:51:48;;;;;;;14.80;4.65;;;;;;;9.49;70.46;95252.94;5049490;28;20426;-77
2023/01/06 03:54:36;;;;;;;6.00;3.88;;;;;;;9.41;70.06;95243.38;5069061;28;20405;-77
2023/01/06 03:57:33;;;;;;;8.77;4.88;;;;;;;9.39;69.77;95227.00;5065682;28;20486;-77
2023/01/06 04:00:08;;;;;;;13.07;5.70;;;;;;;9.45;70.65;95257.75;5048717;28;20526;-77
2023/01/06 04:02:37;;;;;;;7.70;4.80;;;;;;;9.54;69.95;95253.16;5051808;28;20423;-77
2023/01/06 04:05:10;;;;;;;10.85;4.63;;;;;;;9.47;69.78;95257.56;5063587;28;20958;-77
2023/01/06 04:07:38;;;;;;;14.98;6.70;;;;;;;9.32;70.16;95249.81;5067630;28;20453;-77
2023/01/06 04:10:05;;;;;;;9.30;5.53;;;;;;;9.19;70.15;95243.63;5058301;28;20836;-77
2023/01/06 04:12:40;;;;;;;9.80;5.47;;;;;;;9.39;69.83;95274.28;5064390;28;20505;-77
2023/01/06 04:15:14;;;;;;;7.95;4.53;;;;;;;9.06;70.07;95231.25;5057465;28;20481;-77
2023/01/06 04:17:41;;;;;;;7.45;3.88;;;;;;;9.33;69.88;95290.84;5049631;28;20415;-77
2023/01/06 04:20:09;;;;;;;8.48;4.32;;;;;;;9.26;70.09;95292.59;5048386;28;20415;-77
2023/01/06 04:22:35;;;;;;;8.32;4.32;;;;;;;9.22;70.50;95293.97;5048934;28;20437;-77
2023/01/06 04:25:00;;;;;;;5.88;4.00;;;;;;;9.23;70.40;95300.88;5058888;28;20484;-77
2023/01/06 04:27:26;;;;;;;8.32;4.00;;;;;;;8.93;70.15;95267.91;5065645;28;20800;-77
2023/01/06 04:29:51;;;;;;;7.03;3.90;;;;;;;9.09;70.52;95312.25;5069104;28;20424;-77
2023/01/06 04:32:17;;;;;;;6.75;4.20;;;;;;;9.00;70.24;95292.38;5068945;28;20773;-78
2023/01/06 04:34:42;;;;;;;8.23;5.00;;;;;;;8.90;70.14;95273.53;5054774;28;20490;-77
2023/01/06 04:37:10;;;;;;;7.30;4.00;;;;;;;9.04;70.25;95289.19;5050613;28;20423;-78
2023/01/06 04:39:36;;;;;;;8.27;4.32;;;;;;;8.96;70.19;95267.53;5048545;28;20456;-77
2023/01/06 04:42:01;;;;;;;7.85;3.90;;;;;;;9.07;69.90;95277.50;5041101;28;20528;-77
2023/01/06 04:44:27;;;;;;;6.40;4.07;;;;;;;9.07;69.70;95277.50;5044671;28;20430;-78
2023/01/06 04:46:52;;;;;;;7.68;4.20;;;;;;;8.90;70.57;95263.84;5052261;28;20435;-77
2023/01/06 04:49:17;;;;;;;4.60;3.37;;;;;;;8.85;70.42;95266.22;5042361;28;20238;-78
2023/01/06 04:51:43;;;;;;;4.33;2.83;;;;;;;9.08;70.37;95302.78;5059836;28;20178;-78
2023/01/06 04:54:08;;;;;;;7.50;4.45;;;;;;;8.97;69.30;95285.72;5048011;28;20473;-78
2023/01/06 04:56:34;;;;;;;7.05;3.78;;;;;;;8.90;69.54;95284.88;5058400;28;20953;-78
2023/01/06 04:58:59;;;;;;;7.03;4.50;;;;;;;8.83;69.52;95283.16;5049053;28;20407;-78
2023/01/06 05:01:25;;;;;;;7.35;4.53;;;;;;;9.12;69.53;95343.41;5055741;28;20462;-78
2023/01/06 05:03:51;;;;;;;6.85;3.80;;;;;;;8.82;69.85;95290.22;5054672;28;20442;-78
2023/01/06 05:06:17;;;;;;;7.37;4.63;;;;;;;8.96;69.56;95312.16;5055504;28;20635;-78
2023/01/06 05:08:43;;;;;;;6.97;4.27;;;;;;;8.89;69.45;95287.66;5060095;28;20266;-78
2023/01/06 05:11:11;;;;;;;7.50;3.23;;;;;;;9.18;69.65;95333.94;5072572;28;20216;-78
2023/01/06 05:13:37;;;;;;;6.53;3.50;;;;;;;9.14;69.47;95333.53;5058134;28;20225;-78
2023/01/06 05:16:08;;;;;;;6.25;3.75;;;;;;;9.03;69.55;95299.88;5057853;28;20411;-78
2023/01/06 05:18:34;;;;;;;5.18;3.42;;;;;;;9.10;69.36;95334.88;5065020;28;20889;-79
2023/01/06 05:20:59;;;;;;;5.23;3.10;;;;;;;8.97;69.71;95329.53;5062058;28;20531;-78
2023/01/06 05:23:25;;;;;;;6.40;3.60;;;;;;;8.85;70.08;95346.78;5050603;28;20498;-79
2023/01/06 05:25:51;;;;;;;5.10;3.57;;;;;;;8.86;72.02;95340.53;5072452;28;20554;-77
2023/01/06 05:28:17;;;;;;;6.00;3.75;;;;;;;8.93;70.78;95350.09;5065190;28;20413;-78
2023/01/06 05:30:43;;;;;;;7.37;3.87;;;;;;;8.69;70.49;95329.47;5067580;28;20178;-78
2023/01/06 05:33:08;;;;;;;8.33;4.10;;;;;;;8.67;70.75;95348.03;5063052;28;20183;-79
2023/01/06 05:35:33;;;;;;;4.07;3.03;;;;;;;8.86;70.97;95374.66;5065080;28;20182;-79
2023/01/06 05:37:59;;;;;;;9.97;4.97;;;;;;;8.78;71.26;95386.09;5065414;28;20170;-79
2023/01/06 05:40:24;;;;;;;9.00;4.77;;;;;;;8.75;71.26;95375.97;5062055;28;21252;-79
2023/01/06 05:42:56;;;;;;;7.37;4.40;;;;;;;8.70;71.21;95383.59;5065240;28;20260;-79
2023/01/06 05:45:24;;;;;;;7.90;4.43;;;;;;;8.69;71.50;95366.22;5072867;28;20414;-78
2023/01/06 05:47:50;;;;;;;7.43;4.03;;;;;;;8.65;71.03;95352.66;5070792;28;20789;-78
2023/01/06 05:50:16;;;;;;;7.23;4.30;;;;;;;8.84;71.13;95374.84;5072630;28;20420;-78
2023/01/06 05:52:41;;;;;;;6.70;4.47;;;;;;;8.90;70.33;95365.44;5070448;28;20405;-79
2023/01/06 05:55:08;;;;;;;7.33;4.57;;;;;;;8.92;70.18;95379.16;5052717;28;20567;-78
2023/01/06 05:57:35;;;;;;;9.38;5.55;;;;;;;8.70;70.22;95331.09;5052432;28;20411;-78
2023/01/06 06:00:05;;;;;;;7.43;3.83;;;;;;;9.01;69.73;95376.22;5051952;28;20491;-78
2023/01/06 06:02:30;;;;;;;7.72;4.57;;;;;;;8.99;69.08;95377.44;5042233;28;20910;-78
2023/01/06 06:04:56;;;;;;;11.40;4.77;;;;;;;9.07;68.62;95382.56;5061175;28;20245;-78
2023/01/06 06:07:21;;;;;;;7.83;4.43;;;;;;;8.94;68.51;95350.91;5053027;28;20219;-78
2023/01/06 06:09:46;;;;;;;7.70;4.23;;;;;;;9.06;68.63;95368.63;5072000;28;20227;-78
2023/01/06 06:12:12;;;;;;;9.10;4.87;;;;;;;8.94;68.76;95343.84;5064736;28;20166;-79
2023/01/06 06:14:38;;;;;;;6.97;4.30;;;;;;;9.07;68.28;95362.38;5063640;28;20182;-78
2023/01/06 06:17:03;;;;;;;8.87;4.27;;;;;;;8.99;68.80;95351.97;5064808;28;20199;-77
2023/01/06 06:19:29;;;;;;;6.03;3.73;;;;;;;8.74;68.28;95313.16;5051317;28;20333;-78
2023/01/06 06:21:54;;;;;;;5.43;3.47;;;;;;;9.06;68.17;95354.66;5065280;28;20557;-79
2023/01/06 06:24:20;;;;;;;6.20;2.97;;;;;;;9.07;68.09;95358.91;5067047;28;20264;-79
2023/01/06 06:26:45;;;;;;;6.83;3.40;;;;;;;9.01;67.73;95354.41;5059545;28;20293;-79
2023/01/06 06:29:10;;;;;;;10.03;3.97;;;;;;;8.88;67.96;95339.34;5064441;28;20182;-79
2023/01/06 06:31:36;;;;;;;9.77;4.93;;;;;;;9.08;67.31;95360.56;5061379;28;20172;-79
2023/01/06 06:34:02;;;;;;;11.10;4.53;;;;;;;9.22;67.35;95378.03;5062043;28;20309;-78
2023/01/06 06:36:28;;;;;;;8.57;4.37;;;;;;;9.17;67.28;95390.13;5061163;28;20178;-78
2023/01/06 06:38:54;;;;;;;13.53;5.37;;;;;;;9.23;67.19;95394.63;5062075;28;20672;-79
2023/01/06 06:41:21;;;;;;;11.60;5.73;;;;;;;9.30;67.20;95400.72;5052002;28;20175;-78
2023/01/06 06:43:50;;;;;;;18.40;6.23;;;;;;;9.51;66.08;95392.84;5057954;28;20177;-79
2023/01/06 06:46:16;;;;;;;9.27;4.47;;;;;;;10.02;65.49;95406.53;5063772;28;20823;-79
2023/01/06 06:48:41;;;;;;;8.40;3.77;;;;;;;10.67;62.71;95378.88;5052298;28;20207;-79
2023/01/06 06:51:10;;;;;;;7.97;3.80;;;;;;;11.79;58.63;95386.94;5062021;28;20320;-79
2023/01/06 06:53:37;;;;;;;6.70;3.70;;;;;;;12.60;56.65;95384.69;5060284;28;20178;-79
2023/01/06 06:56:04;;;;;;;6.77;3.53;;;;;;;13.23;55.28;95413.03;5063185;28;20262;-79
2023/01/06 06:58:30;;;;;;;7.10;4.60;;;;;;;13.41;53.92;95418.38;5064989;28;20177;-79
2023/01/06 07:00:56;;;;;;;6.67;3.20;;;;;;;13.60;53.34;95414.78;5058166;28;20554;-79
2023/01/06 07:03:21;;;;;;;7.73;3.27;;;;;;;13.80;53.60;95420.75;5060620;28;20185;-79
2023/01/06 07:05:49;;;;;;;8.97;3.63;;;;;;;14.69;51.99;95419.47;5053014;28;20237;-79
2023/01/06 07:08:15;;;;;;;6.50;4.40;;;;;;;15.87;48.46;95416.19;5065534;28;20179;-79
2023/01/06 07:10:40;;;;;;;6.87;4.00;;;;;;;17.37;45.44;95437.47;5056129;28;20171;-79
2023/01/06 07:13:06;;;;;;;7.40;4.18;;;;;;;17.20;44.50;95437.41;5060949;28;20181;-79
2023/01/06 07:15:32;;;;;;;6.10;3.38;;;;;;;17.52;44.34;95433.22;5052530;28;20182;-79
2023/01/06 07:18:02;;;;;;;6.45;4.25;;;;;;;17.91;43.60;95444.00;5056964;28;20667;-79
2023/01/06 07:20:29;;;;;;;5.47;3.85;;;;;;;17.73;42.36;95441.59;5056467;28;20178;-79
2023/01/06 07:22:55;;;;;;;5.30;3.60;;;;;;;16.78;44.20;95432.31;5060620;28;20257;-78
2023/01/06 07:25:20;;;;;;;6.85;3.92;;;;;;;17.04;44.73;95436.28;5055134;28;20574;-79
2023/01/06 07:27:46;;;;;;;6.18;3.97;;;;;;;17.17;43.60;95443.22;5066635;28;20269;-78
2023/01/06 07:30:11;;;;;;;4.05;3.10;;;;;;;17.21;43.41;95444.34;5051876;28;20176;-78
2023/01/06 07:32:37;;;;;;;5.93;3.40;;;;;;;17.59;43.45;95467.66;5061255;28;20649;-78
2023/01/06 07:35:02;;;;;;;18.75;3.45;;;;;;;18.31;41.30;95470.50;5059729;28;20199;-80
2023/01/06 07:37:28;;;;;;;5.00;2.40;;;;;;;19.54;39.41;95462.00;5061281;28;20179;-80
2023/01/06 07:39:53;;;;;;;7.13;3.85;;;;;;;20.08;37.45;95479.84;5060761;28;20665;-79
2023/01/06 07:42:19;;;;;;;5.10;3.13;;;;;;;21.02;35.99;95475.44;5060748;28;20570;-78
2023/01/06 07:44:44;;;;;;;14.98;4.32;;;;;;;21.90;34.33;95470.09;5050946;28;20249;-79
2023/01/06 07:47:10;;;;;;;4.82;3.08;;;;;;;23.74;30.29;95488.31;5051845;28;20191;-79
2023/01/06 07:49:35;;;;;;;4.35;3.15;;;;;;;25.09;27.48;95500.19;5059667;28;20177;-79
2023/01/06 07:52:01;;;;;;;11.07;4.57;;;;;;;26.24;25.40;95482.78;5071259;28;20184;-78
2023/01/06 07:54:26;;;;;;;6.30;3.97;;;;;;;27.43;23.75;95490.16;5071297;28;20174;-79
2023/01/06 07:56:52;;;;;;;8.98;3.83;;;;;;;28.30;22.53;95486.41;5056632;28;20181;-78
2023/01/06 07:59:17;;;;;;;7.15;3.15;;;;;;;27.47;23.45;95468.72;5049532;28;20607;-79
2023/01/06 08:01:42;;;;;;;6.55;3.28;;;;;;;27.66;22.56;95494.59;5070149;28;20598;-78
2023/01/06 08:04:08;;;;;;;6.97;3.95;;;;;;;28.07;22.14;95485.56;5067249;28;20707;-77
2023/01/06 08:06:33;;;;;;;6.53;4.10;;;;;;;27.98;22.35;95485.50;5056592;28;20696;-78
2023/01/06 08:09:00;;;;;;;10.98;3.75;;;;;;;28.05;22.80;95480.44;5070599;28;20208;-78
2023/01/06 08:11:26;;;;;;;6.63;3.80;;;;;;;28.56;22.00;95484.69;5060293;28;20332;-78
2023/01/06 08:13:51;;;;;;;6.13;3.45;;;;;;;28.40;22.33;95469.91;5050385;28;20689;-78
2023/01/06 08:16:17;;;;;;;9.52;3.97;;;;;;;28.16;22.17;95464.81;5050353;28;20167;-78
2023/01/06 08:18:42;;;;;;;6.00;3.13;;;;;;;27.58;22.64;95467.44;5059376;28;20202;-78
2023/01/06 08:21:09;;;;;;;9.95;4.90;;;;;;;26.12;23.79;95464.31;5050118;28;20271;-78
2023/01/06 08:23:36;;;;;;;5.80;3.90;;;;;;;24.87;25.29;95468.31;5059968;28;20174;-78
2023/01/06 08:26:10;;;;;;;9.18;3.70;;;;;;;23.63;26.69;95471.44;5059494;28;20206;-78
2023/01/06 08:28:35;;;;;;;9.02;4.60;;;;;;;22.15;28.50;95456.75;5065314;28;20350;-79
2023/01/06 08:31:01;;;;;;;7.05;3.75;;;;;;;20.53;30.96;95477.56;5070852;28;20248;-78
2023/01/06 08:33:27;;;;;;;5.20;2.00;;;;;;;18.72;33.58;95486.06;5056218;28;20201;-78
2023/01/06 08:36:00;;;;;;;7.18;2.55;;;;;;;17.28;36.25;95485.75;5068170;28;20213;-78
2023/01/06 08:38:27;;;;;;;2.25;1.58;;;;;;;16.46;38.72;95481.56;5071174;28;20606;-78
2023/01/06 08:40:55;;;;;;;1.67;1.52;;;;;;;15.95;39.04;95490.19;5069459;28;20266;-77
2023/01/06 08:43:21;;;;;;;3.43;2.10;;;;;;;15.20;40.69;95476.56;5058798;28;20179;-77
2023/01/06 08:45:46;;;;;;;4.03;2.20;;;;;;;15.18;41.35;95481.28;5058408;28;20202;-76
2023/01/06 08:48:12;;;;;;;3.47;1.90;;;;;;;15.08;42.26;95479.97;5059161;28;20179;-76
2023/01/06 08:50:38;;;;;;;7.27;1.83;;;;;;;14.58;42.58;95476.66;5072919;28;20205;-77
2023/01/06 08:53:04;;;;;;;4.40;2.70;;;;;;;14.03;43.14;95474.91;5065473;28;20167;-78
2023/01/06 08:55:30;;;;;;;6.77;3.10;;;;;;;14.01;45.79;95474.34;5059418;28;20186;-77
2023/01/06 08:57:55;;;;;;;6.67;2.77;;;;;;;14.15;44.19;95446.72;5055505;28;20174;-77
2023/01/06 09:00:21;;;;;;;6.23;2.17;;;;;;;14.56;43.08;95460.16;5059533;28;20171;-77
2023/01/06 09:02:46;;;;;;;9.00;3.07;;;;;;;14.83;42.05;95483.72;5066151;28;20250;-77
2023/01/06 09:05:12;;;;;;;3.77;1.83;;;;;;;14.88;42.47;95497.13;5071525;28;20206;-77
2023/01/06 09:07:37;;;;;;;3.33;1.80;;;;;;;14.68;41.62;95458.41;5074262;28;20696;-77
2023/01/06 09:10:03;;;;;;;5.60;3.53;;;;;;;14.95;41.93;95477.47;5063837;28;20171;-78
2023/01/06 09:12:28;;;;;;;7.23;2.93;;;;;;;15.22;41.80;95467.31;5063188;28;20190;-78
2023/01/06 09:14:54;;;;;;;4.20;2.53;;;;;;;15.46;42.01;95454.97;5062104;28;20174;-77
2023/01/06 09:17:19;;;;;;;4.27;2.00;;;;;;;15.64;40.84;95443.53;5063075;28;20175;-76
2023/01/06 09:19:44;;;;;;;5.37;2.50;;;;;;;15.61;39.97;95458.03;5059164;28;20178;-76
2023/01/06 09:22:10;;;;;;;3.07;2.13;;;;;;;15.38;40.95;95452.63;5065057;28;20245;-76
2023/01/06 09:24:35;;;;;;;7.57;2.10;;;;;;;15.22;41.75;95453.28;5063559;28;20174;-76
2023/01/06 09:27:01;;;;;;;4.07;1.80;;;;;;;15.23;40.65;95455.69;5073805;28;20197;-76
2023/01/06 09:29:26;;;;;;;2.37;1.90;;;;;;;14.96;40.62;95455.22;5063209;28;20250;-76
2023/01/06 09:31:51;;;;;;;5.67;3.33;;;;;;;14.45;40.95;95460.06;5065927;28;20178;-77
2023/01/06 09:34:17;;;;;;;4.30;2.70;;;;;;;14.04;42.16;95458.00;5054653;28;20175;-77
2023/01/06 09:36:42;;;;;;;4.13;2.00;;;;;;;13.59;42.40;95461.59;5061494;28;20166;-77
2023/01/06 09:39:08;;;;;;;11.33;3.57;;;;;;;13.15;43.90;95430.75;5073683;28;20426;-77
2023/01/06 09:41:42;;;;;;;14.10;2.60;;;;;;;13.04;44.74;95442.00;5060031;28;20831;-76
2023/01/06 09:44:32;;;;;;;3.73;2.13;;;;;;;12.90;44.79;95443.06;5073460;28;20170;-77
2023/01/06 09:46:59;;;;;;;4.73;2.47;;;;;;;12.73;45.66;95434.78;5064215;28;20204;-77
2023/01/06 09:49:36;;;;;;;3.87;2.23;;;;;;;12.64;47.04;95433.41;5064340;28;20599;-77
2023/01/06 09:52:08;;;;;;;5.53;3.03;;;;;;;12.59;46.70;95422.66;5055103;28;20252;-77
2023/01/06 09:54:40;;;;;;;9.10;3.03;;;;;;;12.54;47.49;95424.31;5053116;28;20179;-77
2023/01/06 09:57:14;;;;;;;6.80;3.33;;;;;;;12.45;47.61;95429.81;5058884;28;20718;-76
2023/01/06 09:59:55;;;;;;;5.37;3.40;;;;;;;12.39;47.08;95432.47;5073253;28;20664;-77
2023/01/06 10:02:37;;;;;;;8.30;3.97;;;;;;;12.50;48.19;95423.91;5073467;28;20184;-77
2023/01/06 10:05:19;;;;;;;5.00;2.93;;;;;;;12.71;47.92;95434.19;5073155;28;20228;-77
2023/01/06 10:08:00;;;;;;;3.87;2.37;;;;;;;12.83;46.75;95429.06;5072168;28;20213;-77
2023/01/06 10:10:43;;;;;;;9.97;2.77;;;;;;;12.83;46.42;95427.25;5070686;28;20177;-77
2023/01/06 10:13:40;;;;;;;6.23;4.60;;;;;;;12.83;46.54;95419.31;5072508;28;20267;-76
2023/01/06 10:16:35;;;;;;;8.70;4.23;;;;;;;12.73;46.71;95399.63;5058535;28;20179;-76
2023/01/06 10:19:06;;;;;;;5.63;2.77;;;;;;;12.84;47.13;95420.94;5061223;28;20186;-76
2023/01/06 10:21:40;;;;;;;6.83;2.27;;;;;;;12.85;46.11;95413.81;5072627;28;20264;-75
2023/01/06 10:24:27;;;;;;;7.23;2.23;;;;;;;12.91;46.03;95417.44;5071176;28;20555;-75
2023/01/06 10:27:00;;;;;;;2.40;1.60;;;;;;;12.98;44.82;95418.22;5059778;28;20253;-75
2023/01/06 10:29:33;;;;;;;4.27;1.70;;;;;;;12.92;45.18;95404.03;5069098;28;20183;-76
2023/01/06 10:32:02;;;;;;;5.63;2.27;;;;;;;12.79;45.94;95388.25;5059427;28;20248;-76
2023/01/06 10:34:28;;;;;;;7.73;3.40;;;;;;;12.98;46.08;95415.56;5052541;28;20657;-76
2023/01/06 10:37:09;;;;;;;4.43;1.90;;;;;;;13.00;45.67;95414.34;5052417;28;20172;-76
2023/01/06 10:39:36;;;;;;;3.43;1.80;;;;;;;12.97;44.90;95411.34;5060875;28;20224;-76
2023/01/06 10:44:55;;;;;;;4.87;2.00;;;;;;;13.03;45.32;95413.13;5069521;28;20236;-76
2023/01/06 10:47:32;;;;;;;5.70;2.90;;;;;;;13.13;46.05;95416.13;5066916;28;20194;-76
2023/01/06 10:49:59;;;;;;;6.23;2.30;;;;;;;13.16;45.14;95405.13;5069246;28;20175;-76
2023/01/06 10:52:25;;;;;;;9.23;3.47;;;;;;;12.88;44.29;95371.13;5058353;28;20166;-76
2023/01/06 10:54:55;;;;;;;6.47;2.47;;;;;;;12.96;44.95;95391.22;5054461;28;20174;-76
2023/01/06 10:57:29;;;;;;;3.93;1.63;;;;;;;13.04;45.28;95375.91;5065175;28;20159;-76
2023/01/06 11:00:15;;;;;;;7.47;2.33;;;;;;;13.00;44.60;95353.56;5071370;28;20181;-76
2023/01/06 11:02:47;;;;;;;5.77;2.27;;;;;;;12.86;44.89;95357.31;5054372;28;20193;-76
2023/01/06 11:05:19;;;;;;;6.10;2.43;;;;;;;12.77;45.90;95350.66;5052050;28;20222;-76
2023/01/06 11:07:55;;;;;;;5.53;2.63;;;;;;;12.63;45.73;95367.56;5047434;28;20286;-76
2023/01/06 11:10:33;;;;;;;3.13;2.20;;;;;;;12.43;45.30;95375.59;5049947;28;20607;-76
2023/01/06 11:13:01;;;;;;;5.30;4.20;;;;;;;12.10;46.11;95370.44;5050992;28;20189;-76
2023/01/06 11:15:37;;;;;;;7.60;3.90;;;;;;;11.89;46.87;95374.13;5048732;28;20198;-76
2023/01/06 11:18:04;;;;;;;4.33;2.80;;;;;;;11.78;47.47;95363.38;5049447;28;20176;-76
2023/01/06 11:20:33;;;;;;;3.10;2.27;;;;;;;11.80;47.89;95371.91;5050161;28;20190;-76
2023/01/06 11:23:20;;;;;;;6.63;2.73;;;;;;;11.81;48.33;95374.34;5058644;28;20178;-75
2023/01/06 11:26:13;;;;;;;19.10;5.37;;;;;;;11.85;48.30;95370.28;5044740;28;20273;-75
2023/01/06 11:28:39;;;;;;;10.30;4.10;;;;;;;11.99;48.95;95376.34;5051466;28;20179;-76
2023/01/06 11:31:15;;;;;;;4.47;2.80;;;;;;;12.14;48.76;95358.44;5049842;28;20250;-76
2023/01/06 11:33:50;;;;;;;8.00;2.40;;;;;;;12.32;47.75;95373.59;5049475;28;20178;-76
2023/01/06 11:36:16;;;;;;;8.30;2.83;;;;;;;12.35;47.72;95371.38;5049454;28;20171;-76
2023/01/06 11:38:45;;;;;;;5.73;2.27;;;;;;;12.36;47.81;95359.81;5050838;28;20182;-76
2023/01/06 11:41:12;;;;;;;7.30;2.83;;;;;;;12.51;47.58;95366.63;5050619;28;20551;-76
2023/01/06 11:43:44;;;;;;;7.67;2.47;;;;;;;12.58;47.97;95367.41;5050067;28;20261;-76
2023/01/06 11:46:12;;;;;;;3.90;2.13;;;;;;;12.58;47.96;95373.50;5049048;28;20235;-76
2023/01/06 11:48:51;;;;;;;2.83;2.43;;;;;;;12.58;47.49;95356.84;5049593;28;20187;-76
2023/01/06 11:51:41;;;;;;;7.27;3.47;;;;;;;12.71;47.19;95375.28;5048874;28;20178;-77
2023/01/06 11:54:22;;;;;;;10.07;4.90;;;;;;;12.70;47.54;95371.03;5050006;28;20165;-76
2023/01/06 11:57:33;;;;;;;7.70;3.80;;;;;;;12.68;47.04;95384.44;5046636;28;20250;-76